Decoded Metar for WBKL (LABUAN in MALAYSIA) (IATA:LBU) | Meteo·Mobile Aviation Weather
aviador You're here:

WBKL Decoded Metar

LABUAN in MALAYSIA
Report Time2019-01-19 16:00:00
UTC Time2019-01-19 17:10:54
Flight Rules Old
Wind010° at 06 kt
W.Decomp.*RWY 32: 3.9 kt HW 4.6 kt RCW
W.Rank010° ranks 6
Current wind is above 010° avg. (4.4)
Visibility9999 m
Phenomena:N/A
Clouds:Few 015 Hf
Broken 290 Hf
Expected CloudBase > 800 ft AGL from Temp-Dew spread
Ceiling29,000 ft
Temp27°C (ISA +12)
Dew Point25°C (89% RH)
Heat Index30.6°C
QNH1010 hPa
Density Alt2,021 ft
Elevation98 ft
Report Wrong Elevation
Raw Report
METAR WBKL 191600Z 01006KT 330V060 9999 FEW015 BKN290 27/25 Q1010=

Extra information for WBKL:More info

Metar Taf Metar & Taf Last 4 Metars F.Rules Stats Wind Profile Meteogram Temp Stats Airport Information Weather charts Add Link Nearby VenuesMetar ALERT Operation Metar Decoded Social comments